sensor_id;sensor_type;location;lat;lon;timestamp;P1;durP1;ratioP1;P2;durP2;ratioP2
65936;SDS011;52707;52.086;5.418;2023-05-07T00:01:00;11.18;;;7.57;;
65936;SDS011;52707;52.086;5.418;2023-05-07T00:03:26;10.38;;;7.68;;
65936;SDS011;52707;52.086;5.418;2023-05-07T00:05:53;10.38;;;7.82;;
65936;SDS011;52707;52.086;5.418;2023-05-07T00:08:19;13.98;;;7.75;;
65936;SDS011;52707;52.086;5.418;2023-05-07T00:10:46;9.30;;;7.07;;
65936;SDS011;52707;52.086;5.418;2023-05-07T00:13:13;12.60;;;7.43;;
65936;SDS011;52707;52.086;5.418;2023-05-07T00:15:39;13.77;;;7.88;;
65936;SDS011;52707;52.086;5.418;2023-05-07T00:18:05;9.73;;;7.30;;
65936;SDS011;52707;52.086;5.418;2023-05-07T00:20:32;9.65;;;7.22;;
65936;SDS011;52707;52.086;5.418;2023-05-07T00:23:01;7.97;;;6.95;;
65936;SDS011;52707;52.086;5.418;2023-05-07T00:25:27;10.27;;;7.15;;
65936;SDS011;52707;52.086;5.418;2023-05-07T00:27:53;13.38;;;7.22;;
65936;SDS011;52707;52.086;5.418;2023-05-07T00:30:20;11.77;;;7.60;;
65936;SDS011;52707;52.086;5.418;2023-05-07T00:32:46;12.82;;;6.90;;
65936;SDS011;52707;52.086;5.418;2023-05-07T00:35:14;9.68;;;7.38;;
65936;SDS011;52707;52.086;5.418;2023-05-07T00:37:41;9.25;;;7.47;;
65936;SDS011;52707;52.086;5.418;2023-05-07T00:40:07;10.35;;;7.10;;
65936;SDS011;52707;52.086;5.418;2023-05-07T00:42:35;9.85;;;7.03;;
65936;SDS011;52707;52.086;5.418;2023-05-07T00:45:01;12.95;;;7.05;;
65936;SDS011;52707;52.086;5.418;2023-05-07T00:47:28;9.48;;;7.18;;
65936;SDS011;52707;52.086;5.418;2023-05-07T00:49:55;11.48;;;7.78;;
65936;SDS011;52707;52.086;5.418;2023-05-07T00:52:23;9.18;;;7.10;;
65936;SDS011;52707;52.086;5.418;2023-05-07T00:54:51;10.10;;;7.65;;
65936;SDS011;52707;52.086;5.418;2023-05-07T00:57:18;7.55;;;6.80;;
65936;SDS011;52707;52.086;5.418;2023-05-07T00:59:45;12.50;;;8.05;;
65936;SDS011;52707;52.086;5.418;2023-05-07T01:02:11;11.40;;;7.80;;
65936;SDS011;52707;52.086;5.418;2023-05-07T01:04:37;7.57;;;6.78;;
65936;SDS011;52707;52.086;5.418;2023-05-07T01:07:04;11.52;;;7.53;;
65936;SDS011;52707;52.086;5.418;2023-05-07T01:09:31;8.77;;;7.18;;
65936;SDS011;52707;52.086;5.418;2023-05-07T01:11:57;11.85;;;7.75;;
65936;SDS011;52707;52.086;5.418;2023-05-07T01:14:24;8.88;;;7.20;;
65936;SDS011;52707;52.086;5.418;2023-05-07T01:16:51;8.57;;;6.85;;
65936;SDS011;52707;52.086;5.418;2023-05-07T01:19:18;10.70;;;8.07;;
65936;SDS011;52707;52.086;5.418;2023-05-07T01:21:46;12.10;;;7.97;;
65936;SDS011;52707;52.086;5.418;2023-05-07T01:24:13;12.00;;;7.93;;
65936;SDS011;52707;52.086;5.418;2023-05-07T01:26:40;11.40;;;6.93;;
65936;SDS011;52707;52.086;5.418;2023-05-07T01:29:06;9.35;;;7.57;;
65936;SDS011;52707;52.086;5.418;2023-05-07T01:31:33;11.98;;;8.10;;
65936;SDS011;52707;52.086;5.418;2023-05-07T01:34:00;9.40;;;7.35;;
65936;SDS011;52707;52.086;5.418;2023-05-07T01:36:27;9.27;;;7.28;;
65936;SDS011;52707;52.086;5.418;2023-05-07T01:38:55;8.27;;;7.00;;
65936;SDS011;52707;52.086;5.418;2023-05-07T01:41:23;10.48;;;7.13;;
65936;SDS011;52707;52.086;5.418;2023-05-07T01:43:50;10.02;;;7.28;;
65936;SDS011;52707;52.086;5.418;2023-05-07T01:46:18;11.80;;;7.60;;
65936;SDS011;52707;52.086;5.418;2023-05-07T01:48:45;13.70;;;7.72;;
65936;SDS011;52707;52.086;5.418;2023-05-07T01:51:12;11.75;;;7.80;;
65936;SDS011;52707;52.086;5.418;2023-05-07T01:53:39;9.25;;;7.53;;
65936;SDS011;52707;52.086;5.418;2023-05-07T01:56:06;9.85;;;8.20;;
65936;SDS011;52707;52.086;5.418;2023-05-07T01:58:33;17.13;;;7.40;;
65936;SDS011;52707;52.086;5.418;2023-05-07T02:00:59;8.90;;;7.68;;
65936;SDS011;52707;52.086;5.418;2023-05-07T02:03:26;8.38;;;7.57;;
65936;SDS011;52707;52.086;5.418;2023-05-07T02:05:52;9.73;;;7.75;;
65936;SDS011;52707;52.086;5.418;2023-05-07T02:08:18;9.82;;;7.28;;
65936;SDS011;52707;52.086;5.418;2023-05-07T02:10:45;10.27;;;7.60;;
65936;SDS011;52707;52.086;5.418;2023-05-07T02:13:11;10.70;;;7.97;;
65936;SDS011;52707;52.086;5.418;2023-05-07T02:15:37;14.95;;;7.50;;
65936;SDS011;52707;52.086;5.418;2023-05-07T02:18:04;8.43;;;7.53;;
65936;SDS011;52707;52.086;5.418;2023-05-07T02:20:32;9.93;;;8.55;;
65936;SDS011;52707;52.086;5.418;2023-05-07T02:22:58;10.27;;;8.07;;
65936;SDS011;52707;52.086;5.418;2023-05-07T02:25:24;10.13;;;8.25;;
65936;SDS011;52707;52.086;5.418;2023-05-07T02:27:51;8.73;;;7.93;;
65936;SDS011;52707;52.086;5.418;2023-05-07T02:30:17;9.68;;;8.70;;
65936;SDS011;52707;52.086;5.418;2023-05-07T02:32:43;10.00;;;8.98;;
65936;SDS011;52707;52.086;5.418;2023-05-07T02:35:10;11.27;;;9.10;;
65936;SDS011;52707;52.086;5.418;2023-05-07T02:37:37;12.80;;;9.80;;
65936;SDS011;52707;52.086;5.418;2023-05-07T02:40:03;10.20;;;8.27;;
65936;SDS011;52707;52.086;5.418;2023-05-07T02:42:30;11.55;;;8.82;;
65936;SDS011;52707;52.086;5.418;2023-05-07T02:44:57;10.52;;;8.63;;
65936;SDS011;52707;52.086;5.418;2023-05-07T02:47:23;9.63;;;8.55;;
65936;SDS011;52707;52.086;5.418;2023-05-07T02:49:49;9.23;;;8.10;;
65936;SDS011;52707;52.086;5.418;2023-05-07T02:52:16;10.05;;;8.32;;
65936;SDS011;52707;52.086;5.418;2023-05-07T02:54:42;8.68;;;7.78;;
65936;SDS011;52707;52.086;5.418;2023-05-07T02:57:08;9.93;;;8.40;;
65936;SDS011;52707;52.086;5.418;2023-05-07T02:59:35;13.93;;;8.48;;
65936;SDS011;52707;52.086;5.418;2023-05-07T03:02:01;10.93;;;8.52;;
65936;SDS011;52707;52.086;5.418;2023-05-07T03:04:27;12.25;;;9.23;;
65936;SDS011;52707;52.086;5.418;2023-05-07T03:06:54;16.80;;;8.20;;
65936;SDS011;52707;52.086;5.418;2023-05-07T03:09:20;8.98;;;8.15;;
65936;SDS011;52707;52.086;5.418;2023-05-07T03:11:47;9.45;;;8.45;;
65936;SDS011;52707;52.086;5.418;2023-05-07T03:14:13;10.43;;;8.43;;
65936;SDS011;52707;52.086;5.418;2023-05-07T03:16:39;13.90;;;8.75;;
65936;SDS011;52707;52.086;5.418;2023-05-07T03:19:06;9.73;;;8.73;;
65936;SDS011;52707;52.086;5.418;2023-05-07T03:21:32;14.25;;;9.65;;
65936;SDS011;52707;52.086;5.418;2023-05-07T03:24:00;9.50;;;8.40;;
65936;SDS011;52707;52.086;5.418;2023-05-07T03:26:26;12.02;;;8.88;;
65936;SDS011;52707;52.086;5.418;2023-05-07T03:28:52;12.18;;;9.10;;
65936;SDS011;52707;52.086;5.418;2023-05-07T03:31:19;11.23;;;8.93;;
65936;SDS011;52707;52.086;5.418;2023-05-07T03:36:18;10.02;;;9.02;;
65936;SDS011;52707;52.086;5.418;2023-05-07T03:38:44;13.23;;;9.80;;
65936;SDS011;52707;52.086;5.418;2023-05-07T03:41:11;13.40;;;9.10;;
65936;SDS011;52707;52.086;5.418;2023-05-07T03:43:38;14.73;;;10.02;;
65936;SDS011;52707;52.086;5.418;2023-05-07T03:46:04;12.07;;;9.23;;
65936;SDS011;52707;52.086;5.418;2023-05-07T03:48:30;10.98;;;9.00;;
65936;SDS011;52707;52.086;5.418;2023-05-07T03:50:57;9.43;;;8.38;;
65936;SDS011;52707;52.086;5.418;2023-05-07T03:53:24;10.15;;;9.15;;
65936;SDS011;52707;52.086;5.418;2023-05-07T03:55:50;12.70;;;9.30;;
65936;SDS011;52707;52.086;5.418;2023-05-07T03:58:16;9.52;;;8.57;;
65936;SDS011;52707;52.086;5.418;2023-05-07T04:00:43;12.18;;;9.02;;
65936;SDS011;52707;52.086;5.418;2023-05-07T04:03:09;10.50;;;8.80;;
65936;SDS011;52707;52.086;5.418;2023-05-07T04:05:35;9.52;;;8.55;;
65936;SDS011;52707;52.086;5.418;2023-05-07T04:08:02;13.77;;;9.20;;
65936;SDS011;52707;52.086;5.418;2023-05-07T04:10:29;14.88;;;10.05;;
65936;SDS011;52707;52.086;5.418;2023-05-07T04:12:55;12.07;;;9.80;;
65936;SDS011;52707;52.086;5.418;2023-05-07T04:15:23;11.73;;;9.43;;
65936;SDS011;52707;52.086;5.418;2023-05-07T04:17:49;14.02;;;9.75;;
65936;SDS011;52707;52.086;5.418;2023-05-07T04:20:16;11.95;;;9.68;;
65936;SDS011;52707;52.086;5.418;2023-05-07T04:22:43;13.82;;;9.80;;
65936;SDS011;52707;52.086;5.418;2023-05-07T04:25:09;12.75;;;10.43;;
65936;SDS011;52707;52.086;5.418;2023-05-07T04:27:35;10.43;;;8.90;;
65936;SDS011;52707;52.086;5.418;2023-05-07T04:30:02;12.40;;;9.23;;
65936;SDS011;52707;52.086;5.418;2023-05-07T04:32:29;18.83;;;9.15;;
65936;SDS011;52707;52.086;5.418;2023-05-07T04:34:55;13.52;;;9.73;;
65936;SDS011;52707;52.086;5.418;2023-05-07T04:37:22;12.30;;;9.75;;
65936;SDS011;52707;52.086;5.418;2023-05-07T04:39:48;16.02;;;9.43;;
65936;SDS011;52707;52.086;5.418;2023-05-07T04:42:15;11.23;;;9.20;;
65936;SDS011;52707;52.086;5.418;2023-05-07T04:44:41;11.48;;;9.75;;
65936;SDS011;52707;52.086;5.418;2023-05-07T04:47:07;17.27;;;10.32;;
65936;SDS011;52707;52.086;5.418;2023-05-07T04:49:34;23.42;;;9.82;;
65936;SDS011;52707;52.086;5.418;2023-05-07T04:52:00;11.60;;;9.88;;
65936;SDS011;52707;52.086;5.418;2023-05-07T04:54:27;15.70;;;10.50;;
65936;SDS011;52707;52.086;5.418;2023-05-07T04:56:53;15.35;;;10.57;;
65936;SDS011;52707;52.086;5.418;2023-05-07T04:59:19;13.48;;;10.82;;
65936;SDS011;52707;52.086;5.418;2023-05-07T05:01:45;19.15;;;10.57;;
65936;SDS011;52707;52.086;5.418;2023-05-07T05:04:12;15.05;;;10.50;;
65936;SDS011;52707;52.086;5.418;2023-05-07T05:06:39;14.07;;;11.68;;
65936;SDS011;52707;52.086;5.418;2023-05-07T05:09:05;16.20;;;12.10;;
65936;SDS011;52707;52.086;5.418;2023-05-07T05:11:32;18.45;;;11.45;;
65936;SDS011;52707;52.086;5.418;2023-05-07T05:13:59;19.83;;;11.85;;
65936;SDS011;52707;52.086;5.418;2023-05-07T05:16:25;20.63;;;12.25;;
65936;SDS011;52707;52.086;5.418;2023-05-07T05:18:52;20.23;;;12.55;;
65936;SDS011;52707;52.086;5.418;2023-05-07T05:21:20;17.38;;;11.73;;
65936;SDS011;52707;52.086;5.418;2023-05-07T05:23:46;22.42;;;12.32;;
65936;SDS011;52707;52.086;5.418;2023-05-07T05:26:13;20.88;;;12.10;;
65936;SDS011;52707;52.086;5.418;2023-05-07T05:28:39;17.55;;;11.73;;
65936;SDS011;52707;52.086;5.418;2023-05-07T05:31:06;21.83;;;13.27;;
65936;SDS011;52707;52.086;5.418;2023-05-07T05:33:32;20.15;;;13.07;;
65936;SDS011;52707;52.086;5.418;2023-05-07T05:35:58;23.60;;;12.82;;
65936;SDS011;52707;52.086;5.418;2023-05-07T05:38:25;19.73;;;12.20;;
65936;SDS011;52707;52.086;5.418;2023-05-07T05:40:52;21.00;;;12.10;;
65936;SDS011;52707;52.086;5.418;2023-05-07T05:43:21;19.40;;;12.05;;
65936;SDS011;52707;52.086;5.418;2023-05-07T05:45:47;16.65;;;12.40;;
65936;SDS011;52707;52.086;5.418;2023-05-07T05:48:14;21.90;;;12.25;;
65936;SDS011;52707;52.086;5.418;2023-05-07T05:50:41;23.15;;;11.57;;
65936;SDS011;52707;52.086;5.418;2023-05-07T05:53:08;23.23;;;12.63;;
65936;SDS011;52707;52.086;5.418;2023-05-07T05:55:34;23.58;;;12.57;;
65936;SDS011;52707;52.086;5.418;2023-05-07T05:58:00;20.60;;;13.73;;
65936;SDS011;52707;52.086;5.418;2023-05-07T06:00:27;21.08;;;12.68;;
65936;SDS011;52707;52.086;5.418;2023-05-07T06:02:53;21.95;;;13.50;;
65936;SDS011;52707;52.086;5.418;2023-05-07T06:05:20;19.73;;;12.68;;
65936;SDS011;52707;52.086;5.418;2023-05-07T06:07:46;20.05;;;12.77;;
65936;SDS011;52707;52.086;5.418;2023-05-07T06:10:12;20.42;;;12.55;;
65936;SDS011;52707;52.086;5.418;2023-05-07T06:12:39;19.42;;;12.93;;
65936;SDS011;52707;52.086;5.418;2023-05-07T06:15:06;19.30;;;13.93;;
65936;SDS011;52707;52.086;5.418;2023-05-07T06:17:32;21.75;;;13.25;;
65936;SDS011;52707;52.086;5.418;2023-05-07T06:19:58;24.23;;;14.35;;
65936;SDS011;52707;52.086;5.418;2023-05-07T06:22:24;23.15;;;14.18;;
65936;SDS011;52707;52.086;5.418;2023-05-07T06:24:51;18.27;;;13.60;;
65936;SDS011;52707;52.086;5.418;2023-05-07T06:27:17;23.70;;;14.52;;
65936;SDS011;52707;52.086;5.418;2023-05-07T06:29:43;18.10;;;13.82;;
65936;SDS011;52707;52.086;5.418;2023-05-07T06:32:10;33.03;;;14.55;;
65936;SDS011;52707;52.086;5.418;2023-05-07T06:34:37;18.85;;;14.93;;
65936;SDS011;52707;52.086;5.418;2023-05-07T06:37:03;24.95;;;14.73;;
65936;SDS011;52707;52.086;5.418;2023-05-07T06:39:30;19.17;;;14.63;;
65936;SDS011;52707;52.086;5.418;2023-05-07T06:41:56;22.42;;;14.98;;
65936;SDS011;52707;52.086;5.418;2023-05-07T06:44:22;20.83;;;15.10;;
65936;SDS011;52707;52.086;5.418;2023-05-07T06:46:49;21.35;;;15.82;;
65936;SDS011;52707;52.086;5.418;2023-05-07T06:49:15;21.10;;;16.55;;
65936;SDS011;52707;52.086;5.418;2023-05-07T06:51:41;23.08;;;16.30;;
65936;SDS011;52707;52.086;5.418;2023-05-07T06:54:08;23.92;;;16.08;;
65936;SDS011;52707;52.086;5.418;2023-05-07T06:56:34;20.67;;;15.95;;
65936;SDS011;52707;52.086;5.418;2023-05-07T06:59:01;28.15;;;17.55;;
65936;SDS011;52707;52.086;5.418;2023-05-07T07:01:27;25.30;;;15.63;;
65936;SDS011;52707;52.086;5.418;2023-05-07T07:03:54;22.98;;;16.80;;
65936;SDS011;52707;52.086;5.418;2023-05-07T07:06:20;28.35;;;16.63;;
65936;SDS011;52707;52.086;5.418;2023-05-07T07:08:47;27.48;;;18.20;;
65936;SDS011;52707;52.086;5.418;2023-05-07T07:11:13;27.17;;;17.60;;
65936;SDS011;52707;52.086;5.418;2023-05-07T07:13:39;25.65;;;17.50;;
65936;SDS011;52707;52.086;5.418;2023-05-07T07:16:06;21.13;;;16.98;;
65936;SDS011;52707;52.086;5.418;2023-05-07T07:18:32;23.05;;;17.08;;
65936;SDS011;52707;52.086;5.418;2023-05-07T07:20:58;24.25;;;17.30;;
65936;SDS011;52707;52.086;5.418;2023-05-07T07:23:25;23.55;;;18.05;;
65936;SDS011;52707;52.086;5.418;2023-05-07T07:25:51;25.00;;;17.30;;
65936;SDS011;52707;52.086;5.418;2023-05-07T07:28:20;22.40;;;17.60;;
65936;SDS011;52707;52.086;5.418;2023-05-07T07:30:46;20.27;;;16.50;;
65936;SDS011;52707;52.086;5.418;2023-05-07T07:33:12;25.95;;;17.23;;
65936;SDS011;52707;52.086;5.418;2023-05-07T07:35:39;24.50;;;17.63;;
65936;SDS011;52707;52.086;5.418;2023-05-07T07:38:05;23.00;;;17.58;;
65936;SDS011;52707;52.086;5.418;2023-05-07T07:40:34;23.92;;;17.52;;
65936;SDS011;52707;52.086;5.418;2023-05-07T07:43:00;19.38;;;16.15;;
65936;SDS011;52707;52.086;5.418;2023-05-07T07:45:27;20.75;;;16.23;;
65936;SDS011;52707;52.086;5.418;2023-05-07T07:47:53;21.33;;;16.13;;
65936;SDS011;52707;52.086;5.418;2023-05-07T07:50:20;25.23;;;17.20;;
65936;SDS011;52707;52.086;5.418;2023-05-07T07:53:06;23.10;;;16.20;;
65936;SDS011;52707;52.086;5.418;2023-05-07T07:55:34;26.05;;;16.52;;
65936;SDS011;52707;52.086;5.418;2023-05-07T07:58:03;19.85;;;15.98;;
65936;SDS011;52707;52.086;5.418;2023-05-07T08:00:30;19.45;;;15.18;;
65936;SDS011;52707;52.086;5.418;2023-05-07T08:02:56;21.90;;;14.98;;
65936;SDS011;52707;52.086;5.418;2023-05-07T08:05:22;20.98;;;15.02;;
65936;SDS011;52707;52.086;5.418;2023-05-07T08:07:49;21.98;;;15.07;;
65936;SDS011;52707;52.086;5.418;2023-05-07T08:10:19;21.55;;;15.50;;
65936;SDS011;52707;52.086;5.418;2023-05-07T08:12:49;18.90;;;14.65;;
65936;SDS011;52707;52.086;5.418;2023-05-07T08:15:15;21.02;;;15.13;;
65936;SDS011;52707;52.086;5.418;2023-05-07T08:17:42;19.30;;;15.30;;
65936;SDS011;52707;52.086;5.418;2023-05-07T08:20:09;23.05;;;15.02;;
65936;SDS011;52707;52.086;5.418;2023-05-07T08:22:36;24.75;;;14.95;;
65936;SDS011;52707;52.086;5.418;2023-05-07T08:25:02;23.58;;;15.73;;
65936;SDS011;52707;52.086;5.418;2023-05-07T08:27:29;22.67;;;15.10;;
65936;SDS011;52707;52.086;5.418;2023-05-07T08:29:55;20.27;;;16.05;;
65936;SDS011;52707;52.086;5.418;2023-05-07T08:32:22;29.77;;;16.98;;
65936;SDS011;52707;52.086;5.418;2023-05-07T08:34:48;24.45;;;16.50;;
65936;SDS011;52707;52.086;5.418;2023-05-07T08:37:14;17.80;;;15.27;;
65936;SDS011;52707;52.086;5.418;2023-05-07T08:39:41;24.00;;;17.48;;
65936;SDS011;52707;52.086;5.418;2023-05-07T08:42:07;28.50;;;17.13;;
65936;SDS011;52707;52.086;5.418;2023-05-07T08:44:35;27.83;;;16.70;;
65936;SDS011;52707;52.086;5.418;2023-05-07T08:47:05;29.75;;;17.77;;
65936;SDS011;52707;52.086;5.418;2023-05-07T08:49:32;24.67;;;17.25;;
65936;SDS011;52707;52.086;5.418;2023-05-07T08:51:59;24.75;;;17.23;;
65936;SDS011;52707;52.086;5.418;2023-05-07T08:54:26;24.75;;;17.25;;
65936;SDS011;52707;52.086;5.418;2023-05-07T08:56:53;28.63;;;15.55;;
65936;SDS011;52707;52.086;5.418;2023-05-07T08:59:20;21.00;;;15.23;;
65936;SDS011;52707;52.086;5.418;2023-05-07T09:01:46;20.80;;;14.35;;
65936;SDS011;52707;52.086;5.418;2023-05-07T09:04:12;19.92;;;13.80;;
65936;SDS011;52707;52.086;5.418;2023-05-07T09:06:39;20.58;;;15.10;;
65936;SDS011;52707;52.086;5.418;2023-05-07T09:09:08;28.25;;;16.88;;
65936;SDS011;52707;52.086;5.418;2023-05-07T09:11:34;24.10;;;17.98;;
65936;SDS011;52707;52.086;5.418;2023-05-07T09:14:00;25.58;;;17.90;;
65936;SDS011;52707;52.086;5.418;2023-05-07T09:16:28;29.17;;;19.65;;
65936;SDS011;52707;52.086;5.418;2023-05-07T09:18:56;33.85;;;19.23;;
65936;SDS011;52707;52.086;5.418;2023-05-07T09:21:23;32.67;;;20.90;;
65936;SDS011;52707;52.086;5.418;2023-05-07T09:23:53;31.70;;;18.98;;
65936;SDS011;52707;52.086;5.418;2023-05-07T09:26:23;30.42;;;20.52;;
65936;SDS011;52707;52.086;5.418;2023-05-07T09:28:50;27.60;;;19.30;;
65936;SDS011;52707;52.086;5.418;2023-05-07T09:31:16;26.48;;;20.38;;
65936;SDS011;52707;52.086;5.418;2023-05-07T09:33:46;25.83;;;20.30;;
65936;SDS011;52707;52.086;5.418;2023-05-07T09:36:12;27.17;;;20.77;;
65936;SDS011;52707;52.086;5.418;2023-05-07T09:38:39;28.58;;;20.67;;
65936;SDS011;52707;52.086;5.418;2023-05-07T09:41:09;27.20;;;21.25;;
65936;SDS011;52707;52.086;5.418;2023-05-07T09:43:36;31.30;;;21.30;;
65936;SDS011;52707;52.086;5.418;2023-05-07T09:46:03;32.70;;;21.65;;
65936;SDS011;52707;52.086;5.418;2023-05-07T09:48:29;30.27;;;20.55;;
65936;SDS011;52707;52.086;5.418;2023-05-07T09:50:55;27.58;;;20.38;;
65936;SDS011;52707;52.086;5.418;2023-05-07T09:53:24;27.20;;;20.25;;
65936;SDS011;52707;52.086;5.418;2023-05-07T09:55:51;29.83;;;20.42;;
65936;SDS011;52707;52.086;5.418;2023-05-07T09:58:18;25.90;;;20.30;;
65936;SDS011;52707;52.086;5.418;2023-05-07T10:00:44;24.80;;;19.85;;
65936;SDS011;52707;52.086;5.418;2023-05-07T10:03:11;29.88;;;21.15;;
65936;SDS011;52707;52.086;5.418;2023-05-07T10:05:39;24.15;;;19.15;;
65936;SDS011;52707;52.086;5.418;2023-05-07T10:08:06;26.75;;;20.05;;
65936;SDS011;52707;52.086;5.418;2023-05-07T10:10:32;26.38;;;20.10;;
65936;SDS011;52707;52.086;5.418;2023-05-07T10:13:00;24.67;;;19.50;;
65936;SDS011;52707;52.086;5.418;2023-05-07T10:15:27;32.78;;;20.67;;
65936;SDS011;52707;52.086;5.418;2023-05-07T10:17:54;28.88;;;20.50;;
65936;SDS011;52707;52.086;5.418;2023-05-07T10:20:21;33.95;;;19.35;;
65936;SDS011;52707;52.086;5.418;2023-05-07T10:22:48;29.30;;;18.83;;
65936;SDS011;52707;52.086;5.418;2023-05-07T10:25:18;27.27;;;19.67;;
65936;SDS011;52707;52.086;5.418;2023-05-07T10:27:47;25.17;;;19.23;;
65936;SDS011;52707;52.086;5.418;2023-05-07T10:32:45;24.20;;;18.52;;
65936;SDS011;52707;52.086;5.418;2023-05-07T10:35:17;25.42;;;18.70;;
65936;SDS011;52707;52.086;5.418;2023-05-07T10:37:44;25.10;;;17.27;;
65936;SDS011;52707;52.086;5.418;2023-05-07T10:40:11;25.88;;;19.48;;
65936;SDS011;52707;52.086;5.418;2023-05-07T10:42:38;30.40;;;19.75;;
65936;SDS011;52707;52.086;5.418;2023-05-07T10:45:14;24.77;;;19.05;;
65936;SDS011;52707;52.086;5.418;2023-05-07T10:50:26;24.55;;;18.02;;
65936;SDS011;52707;52.086;5.418;2023-05-07T10:55:37;24.23;;;16.80;;
65936;SDS011;52707;52.086;5.418;2023-05-07T11:00:58;26.08;;;16.20;;
65936;SDS011;52707;52.086;5.418;2023-05-07T11:03:25;22.88;;;16.50;;
65936;SDS011;52707;52.086;5.418;2023-05-07T11:08:54;21.38;;;16.38;;
65936;SDS011;52707;52.086;5.418;2023-05-07T11:11:19;28.42;;;17.20;;
65936;SDS011;52707;52.086;5.418;2023-05-07T11:13:47;24.80;;;15.80;;
65936;SDS011;52707;52.086;5.418;2023-05-07T11:16:20;21.75;;;16.10;;
65936;SDS011;52707;52.086;5.418;2023-05-07T11:18:50;18.25;;;15.45;;
65936;SDS011;52707;52.086;5.418;2023-05-07T11:26:13;18.87;;;14.50;;
65936;SDS011;52707;52.086;5.418;2023-05-07T11:28:40;17.55;;;14.57;;
65936;SDS011;52707;52.086;5.418;2023-05-07T11:31:06;23.75;;;14.50;;
65936;SDS011;52707;52.086;5.418;2023-05-07T11:33:33;20.88;;;14.98;;
65936;SDS011;52707;52.086;5.418;2023-05-07T11:36:01;17.30;;;15.45;;
65936;SDS011;52707;52.086;5.418;2023-05-07T11:38:28;20.77;;;15.55;;
65936;SDS011;52707;52.086;5.418;2023-05-07T11:40:56;23.77;;;17.25;;
65936;SDS011;52707;52.086;5.418;2023-05-07T11:43:22;19.48;;;15.43;;
65936;SDS011;52707;52.086;5.418;2023-05-07T11:45:49;22.08;;;15.48;;
65936;SDS011;52707;52.086;5.418;2023-05-07T11:48:16;22.33;;;15.38;;
65936;SDS011;52707;52.086;5.418;2023-05-07T11:50:52;28.92;;;14.38;;
65936;SDS011;52707;52.086;5.418;2023-05-07T11:53:24;20.02;;;14.85;;
65936;SDS011;52707;52.086;5.418;2023-05-07T11:55:54;20.63;;;14.47;;
65936;SDS011;52707;52.086;5.418;2023-05-07T12:00:53;25.20;;;14.85;;
65936;SDS011;52707;52.086;5.418;2023-05-07T12:03:20;20.88;;;13.93;;
65936;SDS011;52707;52.086;5.418;2023-05-07T12:05:47;19.52;;;13.30;;
65936;SDS011;52707;52.086;5.418;2023-05-07T12:08:17;23.58;;;11.45;;
65936;SDS011;52707;52.086;5.418;2023-05-07T12:10:44;18.48;;;8.57;;
65936;SDS011;52707;52.086;5.418;2023-05-07T12:13:23;11.10;;;5.85;;
65936;SDS011;52707;52.086;5.418;2023-05-07T12:15:53;10.47;;;6.10;;
65936;SDS011;52707;52.086;5.418;2023-05-07T12:18:19;11.13;;;7.00;;
65936;SDS011;52707;52.086;5.418;2023-05-07T12:20:46;11.60;;;7.18;;
65936;SDS011;52707;52.086;5.418;2023-05-07T12:23:13;10.40;;;6.55;;
65936;SDS011;52707;52.086;5.418;2023-05-07T12:25:39;13.70;;;8.20;;
65936;SDS011;52707;52.086;5.418;2023-05-07T12:28:07;14.75;;;8.15;;
65936;SDS011;52707;52.086;5.418;2023-05-07T12:30:37;15.48;;;7.40;;
65936;SDS011;52707;52.086;5.418;2023-05-07T12:33:03;16.88;;;7.18;;
65936;SDS011;52707;52.086;5.418;2023-05-07T12:35:36;10.15;;;6.55;;
65936;SDS011;52707;52.086;5.418;2023-05-07T12:38:02;9.35;;;5.50;;
65936;SDS011;52707;52.086;5.418;2023-05-07T12:40:37;8.48;;;4.13;;
65936;SDS011;52707;52.086;5.418;2023-05-07T12:43:03;8.00;;;4.88;;
65936;SDS011;52707;52.086;5.418;2023-05-07T12:45:30;8.13;;;5.57;;
65936;SDS011;52707;52.086;5.418;2023-05-07T12:47:57;13.85;;;6.10;;
65936;SDS011;52707;52.086;5.418;2023-05-07T12:50:30;11.30;;;5.45;;
65936;SDS011;52707;52.086;5.418;2023-05-07T12:52:56;11.30;;;6.40;;
65936;SDS011;52707;52.086;5.418;2023-05-07T12:55:23;10.70;;;6.65;;
65936;SDS011;52707;52.086;5.418;2023-05-07T12:57:49;12.68;;;5.82;;
65936;SDS011;52707;52.086;5.418;2023-05-07T13:00:35;10.73;;;5.45;;
65936;SDS011;52707;52.086;5.418;2023-05-07T13:03:01;8.63;;;5.78;;
65936;SDS011;52707;52.086;5.418;2023-05-07T13:05:28;8.30;;;5.60;;
65936;SDS011;52707;52.086;5.418;2023-05-07T13:07:54;12.82;;;6.75;;
65936;SDS011;52707;52.086;5.418;2023-05-07T13:10:22;11.32;;;6.63;;
65936;SDS011;52707;52.086;5.418;2023-05-07T13:12:48;16.48;;;6.95;;
65936;SDS011;52707;52.086;5.418;2023-05-07T13:15:15;10.77;;;7.20;;
65936;SDS011;52707;52.086;5.418;2023-05-07T13:17:41;10.27;;;6.47;;
65936;SDS011;52707;52.086;5.418;2023-05-07T13:20:11;12.73;;;6.78;;
65936;SDS011;52707;52.086;5.418;2023-05-07T13:22:39;12.77;;;7.15;;
65936;SDS011;52707;52.086;5.418;2023-05-07T13:25:05;10.65;;;7.30;;
65936;SDS011;52707;52.086;5.418;2023-05-07T13:27:32;11.02;;;6.20;;
65936;SDS011;52707;52.086;5.418;2023-05-07T13:30:01;12.27;;;7.15;;
65936;SDS011;52707;52.086;5.418;2023-05-07T13:32:28;12.40;;;7.10;;
65936;SDS011;52707;52.086;5.418;2023-05-07T13:34:54;14.75;;;8.70;;
65936;SDS011;52707;52.086;5.418;2023-05-07T13:37:20;12.80;;;10.50;;
65936;SDS011;52707;52.086;5.418;2023-05-07T13:39:47;16.30;;;11.13;;
65936;SDS011;52707;52.086;5.418;2023-05-07T13:42:13;22.95;;;11.85;;
65936;SDS011;52707;52.086;5.418;2023-05-07T13:44:39;15.93;;;12.00;;
65936;SDS011;52707;52.086;5.418;2023-05-07T13:47:06;16.70;;;12.77;;
65936;SDS011;52707;52.086;5.418;2023-05-07T13:49:32;18.33;;;12.75;;
65936;SDS011;52707;52.086;5.418;2023-05-07T13:51:59;19.05;;;15.15;;
65936;SDS011;52707;52.086;5.418;2023-05-07T13:54:25;22.45;;;13.93;;
65936;SDS011;52707;52.086;5.418;2023-05-07T13:56:51;16.85;;;13.15;;
65936;SDS011;52707;52.086;5.418;2023-05-07T13:59:17;17.38;;;12.93;;
65936;SDS011;52707;52.086;5.418;2023-05-07T14:01:44;18.40;;;13.88;;
65936;SDS011;52707;52.086;5.418;2023-05-07T14:04:10;21.30;;;13.48;;
65936;SDS011;52707;52.086;5.418;2023-05-07T14:06:37;24.92;;;14.38;;
65936;SDS011;52707;52.086;5.418;2023-05-07T14:09:03;21.17;;;14.82;;
65936;SDS011;52707;52.086;5.418;2023-05-07T14:11:30;19.85;;;15.10;;
65936;SDS011;52707;52.086;5.418;2023-05-07T14:13:59;22.48;;;14.88;;
65936;SDS011;52707;52.086;5.418;2023-05-07T14:16:25;20.30;;;15.15;;
65936;SDS011;52707;52.086;5.418;2023-05-07T14:18:51;22.55;;;15.23;;
65936;SDS011;52707;52.086;5.418;2023-05-07T14:21:18;20.02;;;15.52;;
65936;SDS011;52707;52.086;5.418;2023-05-07T14:23:44;23.38;;;14.88;;
65936;SDS011;52707;52.086;5.418;2023-05-07T14:26:10;17.95;;;13.82;;
65936;SDS011;52707;52.086;5.418;2023-05-07T14:28:37;15.50;;;12.98;;
65936;SDS011;52707;52.086;5.418;2023-05-07T14:31:05;15.23;;;13.48;;
65936;SDS011;52707;52.086;5.418;2023-05-07T14:33:32;17.33;;;13.18;;
65936;SDS011;52707;52.086;5.418;2023-05-07T14:35:58;23.33;;;13.05;;
65936;SDS011;52707;52.086;5.418;2023-05-07T14:38:25;17.40;;;13.32;;
65936;SDS011;52707;52.086;5.418;2023-05-07T14:40:51;19.60;;;15.20;;
65936;SDS011;52707;52.086;5.418;2023-05-07T14:43:21;18.13;;;13.40;;
65936;SDS011;52707;52.086;5.418;2023-05-07T14:45:48;18.98;;;12.75;;
65936;SDS011;52707;52.086;5.418;2023-05-07T14:48:14;19.70;;;13.80;;
65936;SDS011;52707;52.086;5.418;2023-05-07T14:50:42;15.95;;;13.02;;